createdAt,value
2022-10-22T00:01:20.137Z,99900.83
2022-10-22T00:03:47.955Z,99897.64
2022-10-22T00:06:15.682Z,99895.48
2022-10-22T00:08:43.406Z,99899.40
2022-10-22T00:11:16.786Z,99897.23
2022-10-22T00:13:44.541Z,99898.44
2022-10-22T00:16:12.765Z,99909.53
2022-10-22T00:18:40.857Z,99911.13
2022-10-22T00:21:08.656Z,99904.30
2022-10-22T00:23:36.521Z,99904.44
2022-10-22T00:26:04.406Z,99900.91
2022-10-22T00:28:32.050Z,99894.03
2022-10-22T00:31:01.457Z,99891.69
2022-10-22T00:33:29.701Z,99886.50
2022-10-22T00:35:57.381Z,99881.53
2022-10-22T00:38:25.240Z,99872.22
2022-10-22T00:40:53.216Z,99869.55
2022-10-22T00:43:21.272Z,99865.02
2022-10-22T00:45:49.430Z,99865.73
2022-10-22T00:48:30.076Z,99862.38
2022-10-22T00:51:08.215Z,99863.22
2022-10-22T00:53:41.706Z,99857.77
2022-10-22T00:56:10.470Z,99848.79
2022-10-22T00:58:45.492Z,99838.04
2022-10-22T01:01:36.629Z,99833.13
2022-10-22T01:04:06.078Z,99830.81
2022-10-22T01:06:34.457Z,99831.86
2022-10-22T01:09:35.861Z,99835.70
2022-10-22T01:12:21.772Z,99834.22
2022-10-22T01:15:20.721Z,99834.77
2022-10-22T01:18:01.317Z,99837.84
2022-10-22T01:20:51.455Z,99847.84
2022-10-22T01:24:07.831Z,99860.67
2022-10-22T01:26:50.826Z,99871.75
2022-10-22T01:29:57.001Z,99880.37
2022-10-22T01:32:29.808Z,99869.03
2022-10-22T01:35:12.507Z,99853.52
2022-10-22T01:37:48.344Z,99855.85
2022-10-22T01:40:20.971Z,99848.66
2022-10-22T01:43:08.358Z,99839.20
2022-10-22T01:45:40.020Z,99831.91
2022-10-22T01:48:10.550Z,99833.83
2022-10-22T01:51:04.935Z,99830.58
2022-10-22T01:53:50.167Z,99837.72
2022-10-22T01:56:36.511Z,99840.08
2022-10-22T01:59:10.580Z,99836.14
2022-10-22T02:01:54.162Z,99832.70
2022-10-22T02:04:21.974Z,99837.09
2022-10-22T02:06:53.319Z,99834.13
2022-10-22T02:09:26.330Z,99828.13
2022-10-22T02:11:56.395Z,99816.58
2022-10-22T02:14:27.992Z,99817.25
2022-10-22T02:16:57.939Z,99811.04
2022-10-22T02:19:46.905Z,99808.33
2022-10-22T02:22:14.922Z,99815.09
2022-10-22T02:24:42.879Z,99815.95
2022-10-22T02:27:36.227Z,99820.66
2022-10-22T02:30:11.558Z,99821.73
2022-10-22T02:32:50.543Z,99825.67
2022-10-22T02:35:22.102Z,99821.72
2022-10-22T02:37:51.224Z,99822.28
2022-10-22T02:40:19.463Z,99828.05
2022-10-22T02:42:49.768Z,99835.61
2022-10-22T02:45:21.673Z,99838.74
2022-10-22T02:47:51.055Z,99839.12
2022-10-22T02:50:20.362Z,99837.26
2022-10-22T02:52:47.959Z,99826.98
2022-10-22T02:55:15.945Z,99821.95
2022-10-22T02:57:43.805Z,99820.02
2022-10-22T03:00:12.466Z,99820.66
2022-10-22T03:02:40.537Z,99815.19
2022-10-22T03:05:08.937Z,99822.68
2022-10-22T03:07:36.590Z,99819.79
2022-10-22T03:10:05.564Z,99823.41
2022-10-22T03:12:33.459Z,99816.53
2022-10-22T03:15:01.132Z,99825.34
2022-10-22T03:17:32.461Z,99829.48
2022-10-22T03:20:00.241Z,99829.95
2022-10-22T03:22:32.533Z,99827.77
2022-10-22T03:25:04.372Z,99822.45
2022-10-22T03:27:32.229Z,99822.40
2022-10-22T03:29:59.869Z,99825.48
2022-10-22T03:32:27.765Z,99827.19
2022-10-22T03:34:55.851Z,99826.89
2022-10-22T03:37:26.741Z,99826.86
2022-10-22T03:39:55.464Z,99821.75
2022-10-22T03:42:24.190Z,99825.79
2022-10-22T03:44:52.700Z,99826.08
2022-10-22T03:47:20.394Z,99827.21
2022-10-22T03:49:48.171Z,99826.13
2022-10-22T03:52:17.155Z,99829.95
2022-10-22T03:54:45.027Z,99827.92
2022-10-22T03:57:13.272Z,99826.41
2022-10-22T03:59:43.354Z,99830.97
2022-10-22T04:02:12.671Z,99834.41
2022-10-22T04:04:40.413Z,99835.54
2022-10-22T04:07:09.029Z,99838.55
2022-10-22T04:09:37.000Z,99835.73
2022-10-22T04:12:07.899Z,99832.95
2022-10-22T04:14:35.745Z,99828.33
2022-10-22T04:17:03.574Z,99828.48
2022-10-22T04:19:31.347Z,99820.00
2022-10-22T04:21:59.926Z,99815.50
2022-10-22T04:24:31.273Z,99809.23
2022-10-22T04:26:59.440Z,99805.91
2022-10-22T04:29:27.751Z,99805.73
2022-10-22T04:31:55.959Z,99809.45
2022-10-22T04:34:27.411Z,99806.77
2022-10-22T04:36:55.930Z,99814.48
2022-10-22T04:39:23.983Z,99819.48
2022-10-22T04:41:51.759Z,99821.73
2022-10-22T04:44:19.788Z,99826.63
2022-10-22T04:46:47.670Z,99823.91
2022-10-22T04:49:15.601Z,99825.17
2022-10-22T04:51:43.250Z,99835.67
2022-10-22T04:54:11.084Z,99851.20
2022-10-22T04:56:39.082Z,99856.42
2022-10-22T04:59:09.256Z,99856.02
2022-10-22T05:01:42.803Z,99846.44
2022-10-22T05:04:14.247Z,99838.48
2022-10-22T05:06:42.721Z,99831.83
2022-10-22T05:09:16.908Z,99828.83
2022-10-22T05:11:48.743Z,99833.27
2022-10-22T05:14:24.984Z,99836.67
2022-10-22T05:16:53.668Z,99833.99
2022-10-22T05:19:27.706Z,99842.31
2022-10-22T05:21:58.625Z,99853.09
2022-10-22T05:24:27.449Z,99850.52
2022-10-22T05:26:57.359Z,99849.50
2022-10-22T05:29:26.037Z,99851.80
2022-10-22T05:31:54.310Z,99853.92
2022-10-22T05:34:22.150Z,99855.30
2022-10-22T05:36:50.107Z,99856.49
2022-10-22T05:39:17.750Z,99867.00
2022-10-22T05:41:45.513Z,99881.63
2022-10-22T05:44:13.940Z,99887.89
2022-10-22T05:46:43.426Z,99892.30
2022-10-22T05:49:14.621Z,99901.77
2022-10-22T05:51:42.821Z,99908.30
2022-10-22T05:54:20.054Z,99910.50
2022-10-22T05:56:49.195Z,99914.98
2022-10-22T05:59:16.870Z,99913.77
2022-10-22T06:01:44.538Z,99909.94
2022-10-22T06:04:13.208Z,99908.27
2022-10-22T06:06:42.703Z,99902.19
2022-10-22T06:09:33.810Z,99896.69
2022-10-22T06:12:02.122Z,99904.89
2022-10-22T06:14:32.231Z,99903.71
2022-10-22T06:17:00.652Z,99905.95
2022-10-22T06:19:32.566Z,99909.98
2022-10-22T06:22:00.481Z,99896.48
2022-10-22T06:24:28.293Z,99877.92
2022-10-22T06:26:56.555Z,99887.97
2022-10-22T06:29:24.158Z,99895.91
2022-10-22T06:31:52.134Z,99886.83
2022-10-22T06:34:20.136Z,99893.42
2022-10-22T06:36:48.137Z,99896.38
2022-10-22T06:39:17.900Z,99894.78
2022-10-22T06:41:45.883Z,99894.77
2022-10-22T06:44:19.426Z,99897.77
2022-10-22T06:46:53.542Z,99892.19
2022-10-22T06:49:21.698Z,99896.23
2022-10-22T06:51:51.420Z,99890.54
2022-10-22T06:54:20.681Z,99899.98
2022-10-22T06:56:50.414Z,99897.05
2022-10-22T06:59:18.509Z,99883.73
2022-10-22T07:01:46.321Z,99889.91
2022-10-22T07:04:14.252Z,99896.14
2022-10-22T07:06:42.512Z,99905.20
2022-10-22T07:09:10.214Z,99908.61
2022-10-22T07:11:43.992Z,99906.57
2022-10-22T07:14:12.907Z,99912.03
2022-10-22T07:16:43.110Z,99918.19
2022-10-22T07:19:10.978Z,99915.59
2022-10-22T07:21:39.259Z,99908.72
2022-10-22T07:24:07.664Z,99917.77
2022-10-22T07:26:35.461Z,99915.99
2022-10-22T07:29:06.146Z,99918.52
2022-10-22T07:31:34.035Z,99921.45
2022-10-22T07:34:02.081Z,99926.80
2022-10-22T07:36:30.158Z,99922.77
2022-10-22T07:38:59.514Z,99926.70
2022-10-22T07:41:29.579Z,99922.21
2022-10-22T07:43:58.245Z,99921.19
2022-10-22T07:46:26.601Z,99918.31
2022-10-22T07:48:54.511Z,99921.98
2022-10-22T07:51:22.720Z,99918.94
2022-10-22T07:53:50.808Z,99922.45
2022-10-22T07:56:18.637Z,99923.30
2022-10-22T07:58:47.156Z,99927.34
2022-10-22T08:01:15.318Z,99928.92
2022-10-22T08:03:43.018Z,99931.52
2022-10-22T08:06:14.933Z,99931.08
2022-10-22T08:08:45.822Z,99940.37
2022-10-22T08:11:16.359Z,99936.86
2022-10-22T08:13:45.550Z,99929.37
2022-10-22T08:16:14.415Z,99931.40
2022-10-22T08:18:42.471Z,99929.63
2022-10-22T08:21:11.668Z,99931.60
2022-10-22T08:23:39.304Z,99932.77
2022-10-22T08:26:07.697Z,99939.65
2022-10-22T08:28:37.192Z,99935.32
2022-10-22T08:31:07.847Z,99939.91
2022-10-22T08:33:36.640Z,99941.90
2022-10-22T08:36:05.120Z,99956.02
2022-10-22T08:38:33.046Z,99956.61
2022-10-22T08:41:10.496Z,99963.52
2022-10-22T08:43:50.681Z,99973.27
2022-10-22T08:46:55.773Z,99977.80
2022-10-22T08:49:27.536Z,99977.33
2022-10-22T08:51:58.246Z,99973.77
2022-10-22T08:54:50.807Z,99969.17
2022-10-22T08:57:27.874Z,99961.30
2022-10-22T09:00:05.752Z,99957.70
2022-10-22T09:02:46.395Z,99955.83
2022-10-22T09:05:23.324Z,99953.73
2022-10-22T09:07:53.083Z,99957.73
2022-10-22T09:10:27.557Z,99954.68
2022-10-22T09:12:55.542Z,99951.70
2022-10-22T09:15:23.743Z,99957.48
2022-10-22T09:18:14.669Z,99963.23
2022-10-22T09:21:00.293Z,99964.99
2022-10-22T09:23:37.286Z,99967.61
2022-10-22T09:26:13.459Z,99974.59
2022-10-22T09:28:41.968Z,99977.48
2022-10-22T09:31:14.858Z,99991.61
2022-10-22T09:33:44.887Z,99989.53
2022-10-22T09:36:18.430Z,99985.27
2022-10-22T09:38:51.899Z,99982.46
2022-10-22T09:41:23.495Z,99980.27
2022-10-22T09:43:52.037Z,99980.95
2022-10-22T09:46:24.061Z,99985.52
2022-10-22T09:49:01.442Z,99986.85
2022-10-22T09:51:56.380Z,99984.73
2022-10-22T09:54:37.189Z,99981.45
2022-10-22T09:57:14.184Z,99982.59
2022-10-22T09:59:43.244Z,99975.41
2022-10-22T10:02:44.009Z,99977.89
2022-10-22T10:05:21.178Z,99979.38
2022-10-22T10:07:49.057Z,99981.09
2022-10-22T10:10:27.140Z,99985.75
2022-10-22T10:13:21.116Z,99988.61
2022-10-22T10:16:12.412Z,99986.86
2022-10-22T10:19:02.217Z,99987.08
2022-10-22T10:21:54.815Z,99980.30
2022-10-22T10:24:44.756Z,99974.70
2022-10-22T10:27:26.128Z,99973.91
2022-10-22T10:30:06.426Z,99977.00
2022-10-22T10:33:11.506Z,99983.59
2022-10-22T10:36:02.243Z,99990.73
2022-10-22T10:39:05.159Z,99997.91
2022-10-22T10:42:01.941Z,99991.59
2022-10-22T10:44:52.924Z,99984.56
2022-10-22T10:47:51.960Z,99990.23
2022-10-22T10:50:52.516Z,99989.29
2022-10-22T10:53:36.790Z,99990.57
2022-10-22T10:56:07.568Z,99993.71
2022-10-22T10:58:47.915Z,99993.55
2022-10-22T11:01:28.276Z,99989.04
2022-10-22T11:04:02.211Z,99988.13
2022-10-22T11:06:37.350Z,99987.00
2022-10-22T11:09:52.900Z,99991.39
2022-10-22T11:12:39.688Z,99990.38
2022-10-22T11:15:40.084Z,99978.36
2022-10-22T11:18:17.968Z,99966.48
2022-10-22T11:21:13.305Z,99968.70
2022-10-22T11:23:53.820Z,99968.48
2022-10-22T11:26:56.860Z,99966.71
2022-10-22T11:29:32.840Z,99961.54
2022-10-22T11:32:03.171Z,99968.69
2022-10-22T11:34:44.517Z,99975.27
2022-10-22T11:37:14.399Z,99973.47
2022-10-22T11:40:13.267Z,99974.86
2022-10-22T11:42:52.303Z,99980.81
2022-10-22T11:45:28.768Z,99976.61
2022-10-22T11:47:56.724Z,99978.67
2022-10-22T11:50:43.621Z,99982.90
2022-10-22T11:53:14.379Z,99974.95
2022-10-22T11:55:48.204Z,99974.81
2022-10-22T11:58:28.722Z,99973.71
2022-10-22T12:01:12.650Z,99982.15
2022-10-22T12:03:44.028Z,99984.73
2022-10-22T12:06:15.809Z,99982.20
2022-10-22T12:08:49.638Z,99975.77
2022-10-22T12:11:20.139Z,99974.05
2022-10-22T12:14:28.083Z,99968.30
2022-10-22T12:16:58.093Z,99966.56
2022-10-22T12:19:46.701Z,99958.17
2022-10-22T12:22:27.282Z,99953.63
2022-10-22T12:25:01.077Z,99962.73
2022-10-22T12:27:40.566Z,99967.89
2022-10-22T12:30:22.787Z,99973.41
2022-10-22T12:32:56.716Z,99962.99
2022-10-22T12:35:27.428Z,99966.02
2022-10-22T12:38:12.944Z,99967.34
2022-10-22T12:40:45.883Z,99970.13
2022-10-22T12:43:19.154Z,99964.01
2022-10-22T12:45:49.884Z,99967.04
2022-10-22T12:48:22.453Z,99963.62
2022-10-22T12:50:54.036Z,99967.27
2022-10-22T12:53:30.937Z,99965.98
2022-10-22T12:56:05.875Z,99962.25
2022-10-22T12:59:02.081Z,99967.07
2022-10-22T13:01:37.701Z,99972.17
2022-10-22T13:04:22.903Z,99968.75
2022-10-22T13:07:12.390Z,99968.88
2022-10-22T13:09:42.789Z,99967.38
2022-10-22T13:12:16.321Z,99961.70
2022-10-22T13:14:46.620Z,99968.38
2022-10-22T13:17:19.272Z,99975.51
2022-10-22T13:19:53.905Z,99978.33
2022-10-22T13:22:52.436Z,99976.96
2022-10-22T13:25:26.198Z,99986.60
2022-10-22T13:28:01.012Z,99985.19
2022-10-22T13:30:32.128Z,99983.91
2022-10-22T13:33:02.462Z,99987.29
2022-10-22T13:35:33.933Z,99985.55
2022-10-22T13:38:02.101Z,99991.66
2022-10-22T13:40:32.257Z,99992.04
2022-10-22T13:42:59.950Z,99992.54
2022-10-22T13:45:27.569Z,99990.89
2022-10-22T13:47:55.453Z,99995.90
2022-10-22T13:50:23.535Z,99996.31
2022-10-22T13:52:54.393Z,100001.02
2022-10-22T13:55:25.691Z,100001.61
2022-10-22T14:00:59.407Z,100001.77
2022-10-22T14:03:32.985Z,99999.71
2022-10-22T14:06:01.440Z,100006.76
2022-10-22T14:08:29.398Z,100005.34
2022-10-22T14:10:57.213Z,100015.29
2022-10-22T14:13:25.028Z,100012.21
2022-10-22T14:15:53.052Z,100010.02
2022-10-22T14:18:28.932Z,100007.48
2022-10-22T14:21:00.195Z,100012.70
2022-10-22T14:23:30.344Z,100013.55
2022-10-22T14:25:59.425Z,100017.39
2022-10-22T14:28:27.969Z,100017.95
2022-10-22T14:30:55.908Z,100022.33
2022-10-22T14:33:30.544Z,100022.86
2022-10-22T14:36:01.133Z,100022.56
2022-10-22T14:38:29.756Z,100026.20
2022-10-22T14:40:59.771Z,100027.73
2022-10-22T14:43:30.020Z,100033.78
2022-10-22T14:45:58.337Z,100030.38
2022-10-22T14:48:26.000Z,100030.53
2022-10-22T14:50:55.297Z,100033.25
2022-10-22T14:53:23.223Z,100036.40
2022-10-22T14:55:52.184Z,100035.81
2022-10-22T14:58:19.983Z,100045.11
2022-10-22T15:00:47.708Z,100044.77
2022-10-22T15:03:15.486Z,100046.69
2022-10-22T15:05:45.055Z,100043.52
2022-10-22T15:08:14.739Z,100042.77
2022-10-22T15:10:42.541Z,100040.30
2022-10-22T15:13:10.214Z,100038.97
2022-10-22T15:15:41.246Z,100046.10
2022-10-22T15:18:08.929Z,100040.50
2022-10-22T15:20:36.643Z,100047.14
2022-10-22T15:23:04.590Z,100045.36
2022-10-22T15:25:32.451Z,100046.83
2022-10-22T15:28:07.444Z,100046.46
2022-10-22T15:30:37.125Z,100052.05
2022-10-22T15:33:05.409Z,100056.54
2022-10-22T15:35:33.172Z,100058.29
2022-10-22T15:38:00.953Z,100064.92
2022-10-22T15:40:28.778Z,100068.95
2022-10-22T15:42:58.632Z,100072.26
2022-10-22T15:45:26.406Z,100073.63
2022-10-22T15:47:54.005Z,100077.56
2022-10-22T15:50:21.929Z,100080.98
2022-10-22T15:52:50.329Z,100085.59
2022-10-22T15:55:19.099Z,100085.70
2022-10-22T15:57:46.920Z,100084.45
2022-10-22T16:00:15.095Z,100089.91
2022-10-22T16:02:43.691Z,100090.02
2022-10-22T16:05:11.354Z,100094.23
2022-10-22T16:07:39.281Z,100102.63
2022-10-22T16:10:07.943Z,100098.20
2022-10-22T16:12:36.139Z,100104.42
2022-10-22T16:15:04.264Z,100110.60
2022-10-22T16:17:32.155Z,100110.85
2022-10-22T16:20:00.936Z,100113.08
2022-10-22T16:22:28.817Z,100113.31
2022-10-22T16:24:58.170Z,100113.13
2022-10-22T16:27:26.135Z,100118.56
2022-10-22T16:29:54.131Z,100121.45
2022-10-22T16:32:22.142Z,100123.54
2022-10-22T16:34:49.748Z,100123.42
2022-10-22T16:37:17.468Z,100120.63
2022-10-22T16:39:46.099Z,100123.13
2022-10-22T16:42:13.738Z,100131.01
2022-10-22T16:44:41.379Z,100133.05
2022-10-22T16:47:09.095Z,100136.50
2022-10-22T16:49:36.694Z,100138.85
2022-10-22T16:52:04.712Z,100144.15
2022-10-22T16:54:32.418Z,100148.29
2022-10-22T16:57:00.079Z,100153.95
2022-10-22T16:59:28.110Z,100153.13
2022-10-22T17:01:56.212Z,100155.85
2022-10-22T17:04:23.908Z,100158.42
2022-10-22T17:06:51.874Z,100159.77
2022-10-22T17:09:19.684Z,100161.45
2022-10-22T17:11:47.464Z,100162.10
2022-10-22T17:14:15.295Z,100164.86
2022-10-22T17:16:43.492Z,100170.14
2022-10-22T17:19:14.221Z,100171.56
2022-10-22T17:21:42.692Z,100173.65
2022-10-22T17:24:10.715Z,100175.38
2022-10-22T17:26:38.401Z,100175.33
2022-10-22T17:29:06.474Z,100181.05
2022-10-22T17:31:39.289Z,100184.72
2022-10-22T17:34:14.761Z,100188.23
2022-10-22T17:36:43.341Z,100195.23
2022-10-22T17:39:15.629Z,100198.84
2022-10-22T17:41:43.248Z,100197.38
2022-10-22T17:44:12.459Z,100203.93
2022-10-22T17:46:40.007Z,100204.40
2022-10-22T17:49:20.398Z,100206.96
2022-10-22T17:51:48.428Z,100204.15
2022-10-22T17:54:16.177Z,100212.08
2022-10-22T17:56:44.281Z,100213.45
2022-10-22T17:59:14.411Z,100218.79
2022-10-22T18:01:45.833Z,100221.45
2022-10-22T18:04:16.607Z,100219.42
2022-10-22T18:06:46.921Z,100226.73
2022-10-22T18:09:18.597Z,100226.96
2022-10-22T18:11:48.989Z,100228.95
2022-10-22T18:14:18.541Z,100232.50
2022-10-22T18:16:49.985Z,100230.08
2022-10-22T18:19:23.258Z,100236.61
2022-10-22T18:21:51.253Z,100233.48
2022-10-22T18:24:19.244Z,100234.22
2022-10-22T18:26:46.952Z,100233.70
2022-10-22T18:29:18.141Z,100240.58
2022-10-22T18:31:47.049Z,100239.07
2022-10-22T18:34:17.639Z,100240.17
2022-10-22T18:36:48.170Z,100232.98
2022-10-22T18:39:16.149Z,100233.97
2022-10-22T18:41:43.861Z,100235.90
2022-10-22T18:44:14.272Z,100236.23
2022-10-22T18:46:41.971Z,100235.02
2022-10-22T18:49:15.847Z,100237.48
2022-10-22T18:51:44.258Z,100235.57
2022-10-22T18:54:22.517Z,100234.40
2022-10-22T18:56:52.628Z,100241.53
2022-10-22T18:59:24.592Z,100241.33
2022-10-22T19:01:54.024Z,100243.36
2022-10-22T19:04:21.838Z,100248.02
2022-10-22T19:06:49.523Z,100251.85
2022-10-22T19:09:17.702Z,100252.52
2022-10-22T19:11:45.899Z,100252.76
2022-10-22T19:14:15.041Z,100255.10
2022-10-22T19:16:42.898Z,100257.77
2022-10-22T19:19:11.711Z,100259.33
2022-10-22T19:21:39.381Z,100263.23
2022-10-22T19:24:07.419Z,100266.22
2022-10-22T19:26:35.126Z,100266.64
2022-10-22T19:29:03.565Z,100267.19
2022-10-22T19:31:32.102Z,100275.07
2022-10-22T19:34:01.483Z,100281.01
2022-10-22T19:36:31.788Z,100282.08
2022-10-22T19:39:00.520Z,100283.73
2022-10-22T19:41:29.436Z,100284.09
2022-10-22T19:43:58.367Z,100285.27
2022-10-22T19:46:29.826Z,100285.68
2022-10-22T19:48:57.600Z,100287.84
2022-10-22T19:51:27.864Z,100290.82
2022-10-22T19:54:00.392Z,100292.52
2022-10-22T19:56:28.310Z,100295.72
2022-10-22T19:58:56.172Z,100296.39
2022-10-22T20:01:24.686Z,100298.48
2022-10-22T20:03:53.253Z,100302.14
2022-10-22T20:06:21.966Z,100302.62
2022-10-22T20:08:52.376Z,100301.54
2022-10-22T20:11:26.864Z,100309.43
2022-10-22T20:13:55.149Z,100313.46
2022-10-22T20:16:26.004Z,100314.13
2022-10-22T20:18:53.966Z,100313.02
2022-10-22T20:21:21.994Z,100313.23
2022-10-22T20:23:53.127Z,100311.58
2022-10-22T20:26:23.881Z,100317.85
2022-10-22T20:28:52.054Z,100321.52
2022-10-22T20:31:22.732Z,100325.85
2022-10-22T20:33:51.218Z,100317.80
2022-10-22T20:36:21.849Z,100316.38
2022-10-22T20:38:50.870Z,100320.83
2022-10-22T20:41:21.689Z,100320.68
2022-10-22T20:43:51.912Z,100319.69
2022-10-22T20:46:32.047Z,100322.59
2022-10-22T20:49:10.111Z,100325.36
2022-10-22T20:51:38.438Z,100321.63
2022-10-22T20:54:08.024Z,100326.21
2022-10-22T20:56:37.997Z,100324.30
2022-10-22T20:59:08.275Z,100327.10
2022-10-22T21:01:40.249Z,100329.35
2022-10-22T21:04:08.343Z,100329.54
2022-10-22T21:06:40.456Z,100331.38
2022-10-22T21:09:09.792Z,100335.61
2022-10-22T21:11:39.126Z,100340.54
2022-10-22T21:14:07.545Z,100340.75
2022-10-22T21:16:35.699Z,100344.04
2022-10-22T21:19:03.659Z,100344.48
2022-10-22T21:21:31.609Z,100340.90
2022-10-22T21:23:59.259Z,100338.68
2022-10-22T21:26:27.152Z,100341.95
2022-10-22T21:28:54.951Z,100340.42
2022-10-22T21:31:26.138Z,100343.06
2022-10-22T21:33:54.044Z,100340.95
2022-10-22T21:36:23.632Z,100347.05
2022-10-22T21:38:52.651Z,100344.55
2022-10-22T21:41:22.693Z,100347.48
2022-10-22T21:43:51.034Z,100352.52
2022-10-22T21:46:24.122Z,100356.09
2022-10-22T21:49:02.191Z,100355.73
2022-10-22T21:51:32.980Z,100355.37
2022-10-22T21:54:01.048Z,100354.06
2022-10-22T21:56:32.734Z,100355.05
2022-10-22T21:59:01.860Z,100357.65
2022-10-22T22:01:29.581Z,100355.45
2022-10-22T22:03:57.465Z,100353.77
2022-10-22T22:06:29.550Z,100354.64
2022-10-22T22:08:59.098Z,100358.58
2022-10-22T22:11:28.029Z,100360.27
2022-10-22T22:13:56.843Z,100359.30
2022-10-22T22:16:30.531Z,100366.08
2022-10-22T22:19:00.182Z,100373.59
2022-10-22T22:21:28.694Z,100370.09
2022-10-22T22:23:57.899Z,100370.77
2022-10-22T22:26:29.664Z,100370.71
2022-10-22T22:29:00.117Z,100374.69
2022-10-22T22:31:33.078Z,100371.23
2022-10-22T22:34:12.870Z,100373.99
2022-10-22T22:36:43.473Z,100373.44
2022-10-22T22:39:17.477Z,100369.95
2022-10-22T22:41:46.785Z,100377.36
2022-10-22T22:44:14.834Z,100376.73
2022-10-22T22:46:43.204Z,100377.01
2022-10-22T22:49:12.540Z,100382.53
2022-10-22T22:51:41.121Z,100386.16
2022-10-22T22:54:09.803Z,100387.02
2022-10-22T22:56:38.312Z,100389.27
2022-10-22T22:59:06.559Z,100384.75
2022-10-22T23:01:37.044Z,100387.27
2022-10-22T23:04:07.727Z,100382.39
2022-10-22T23:06:37.959Z,100385.39
2022-10-22T23:09:08.579Z,100388.80
2022-10-22T23:11:37.161Z,100382.70
2022-10-22T23:14:06.783Z,100384.89
2022-10-22T23:16:37.145Z,100385.77
2022-10-22T23:19:05.860Z,100392.15
2022-10-22T23:21:40.447Z,100395.58
2022-10-22T23:24:11.204Z,100392.08
2022-10-22T23:26:46.803Z,100392.27
2022-10-22T23:29:20.602Z,100390.19
2022-10-22T23:31:49.674Z,100391.67
2022-10-22T23:34:22.799Z,100394.37
2022-10-22T23:36:51.556Z,100392.68
2022-10-22T23:39:22.502Z,100389.12
2022-10-22T23:41:51.572Z,100389.44
2022-10-22T23:44:22.018Z,100388.86
2022-10-22T23:46:51.298Z,100387.99
2022-10-22T23:49:20.049Z,100391.27
2022-10-22T23:51:48.098Z,100396.77
2022-10-22T23:54:17.842Z,100397.92
2022-10-22T23:56:45.881Z,100402.54
